createdAt,value
2017-06-08T00:00:24.219Z,26.37
2017-06-08T00:01:24.309Z,26.28
2017-06-08T00:02:23.922Z,26.29
2017-06-08T00:03:23.929Z,26.15
2017-06-08T00:04:24.249Z,26.23
2017-06-08T00:05:24.257Z,26.2
2017-06-08T00:06:23.954Z,26.2
2017-06-08T00:07:24.325Z,26.26
2017-06-08T00:08:23.996Z,26.21
2017-06-08T00:09:23.981Z,26.15
2017-06-08T00:10:23.990Z,26.23
2017-06-08T00:11:24.318Z,26.21
2017-06-08T00:12:24.363Z,26.18
2017-06-08T00:13:24.326Z,26.12
2017-06-08T00:14:24.331Z,26.2
2017-06-08T00:15:24.341Z,26.15
2017-06-08T00:16:24.353Z,26.13
2017-06-08T00:17:24.411Z,26.25
2017-06-08T00:18:24.368Z,26.12
2017-06-08T00:19:24.374Z,26.17
2017-06-08T00:20:24.383Z,26.17
2017-06-08T00:21:24.395Z,26.13
2017-06-08T00:22:24.405Z,26.21
2017-06-08T00:23:24.422Z,26.17
2017-06-08T00:24:24.421Z,26.2
2017-06-08T00:25:24.555Z,26.15
2017-06-08T00:26:24.130Z,26.12
2017-06-08T00:27:24.136Z,26.15
2017-06-08T00:28:24.452Z,26.1
2017-06-08T00:29:24.512Z,26.12
2017-06-08T00:30:24.520Z,26.17
2017-06-08T00:31:24.481Z,26.17
2017-06-08T00:32:24.495Z,26.17
2017-06-08T00:33:24.188Z,26.15
2017-06-08T00:34:24.505Z,26.18
2017-06-08T00:35:24.510Z,26.21
2017-06-08T00:36:24.524Z,26.15
2017-06-08T00:37:24.533Z,26.1
2017-06-08T00:38:24.228Z,26.1
2017-06-08T00:39:24.594Z,26.15
2017-06-08T00:40:24.558Z,26.17
2017-06-08T00:41:24.301Z,26.06
2017-06-08T00:42:24.622Z,26.07
2017-06-08T00:43:24.584Z,26.1
2017-06-08T00:44:24.282Z,26.1
2017-06-08T00:45:24.596Z,26.12
2017-06-08T00:46:24.656Z,26.01
2017-06-08T00:47:24.615Z,26.06
2017-06-08T00:48:24.621Z,26.07
2017-06-08T00:49:24.632Z,26.09
2017-06-08T00:50:24.361Z,26.1
2017-06-08T00:51:24.647Z,25.98
2017-06-08T00:52:24.347Z,26.12
2017-06-08T00:53:24.732Z,26.01
2017-06-08T00:54:24.721Z,26.09
2017-06-08T00:55:24.422Z,26.02
2017-06-08T00:56:24.699Z,26.02
2017-06-08T00:57:24.699Z,26.05
2017-06-08T00:58:24.710Z,26.01
2017-06-08T00:59:24.406Z,25.98
2017-06-08T01:00:24.724Z,25.98
2017-06-08T01:01:24.423Z,25.97
2017-06-08T01:02:24.431Z,26.02
2017-06-08T01:03:24.751Z,26.02
2017-06-08T01:04:24.755Z,26.02
2017-06-08T01:05:24.145Z,25.97
2017-06-08T01:06:24.510Z,25.98
2017-06-08T01:07:24.782Z,25.98
2017-06-08T01:08:24.482Z,26.05
2017-06-08T01:09:24.489Z,26.05
2017-06-08T01:10:24.858Z,26.05
2017-06-08T01:11:24.872Z,25.98
2017-06-08T01:12:24.829Z,25.99
2017-06-08T01:13:24.528Z,25.98
2017-06-08T01:14:24.639Z,25.9
2017-06-08T01:15:24.541Z,26.05
2017-06-08T01:16:24.560Z,25.91
2017-06-08T01:17:24.872Z,25.92
2017-06-08T01:18:24.615Z,25.92
2017-06-08T01:19:24.576Z,25.83
2017-06-08T01:20:24.272Z,25.88
2017-06-08T01:21:24.901Z,25.88
2017-06-08T01:22:24.909Z,25.9
2017-06-08T01:23:24.300Z,25.94
2017-06-08T01:24:24.616Z,25.9
2017-06-08T01:25:24.942Z,25.88
2017-06-08T01:26:24.946Z,25.9
2017-06-08T01:27:24.956Z,25.92
2017-06-08T01:28:25.014Z,25.87
2017-06-08T01:29:24.970Z,26.01
2017-06-08T01:30:25.018Z,25.85
2017-06-08T01:31:24.367Z,25.87
2017-06-08T01:32:24.995Z,25.83
2017-06-08T01:33:24.695Z,25.88
2017-06-08T01:34:25.062Z,25.88
2017-06-08T01:35:25.021Z,25.85
2017-06-08T01:36:24.720Z,25.88
2017-06-08T01:37:25.037Z,25.85
2017-06-08T01:38:25.049Z,25.87
2017-06-08T01:39:25.068Z,25.83
2017-06-08T01:40:24.751Z,25.85
2017-06-08T01:41:25.077Z,25.76
2017-06-08T01:42:25.181Z,25.91
2017-06-08T01:43:24.776Z,25.77
2017-06-08T01:44:24.786Z,25.76
2017-06-08T01:45:25.110Z,25.77
2017-06-08T01:46:24.803Z,25.83
2017-06-08T01:47:25.123Z,25.76
2017-06-08T01:48:24.822Z,25.79
2017-06-08T01:49:25.154Z,25.76
2017-06-08T01:50:25.145Z,25.76
2017-06-08T01:51:24.894Z,25.79
2017-06-08T01:52:24.862Z,25.82
2017-06-08T01:53:25.174Z,25.79
2017-06-08T01:54:25.231Z,25.82
2017-06-08T01:55:25.187Z,25.8
2017-06-08T01:56:25.197Z,25.79
2017-06-08T01:57:25.260Z,25.79
2017-06-08T01:58:24.903Z,25.83
2017-06-08T01:59:24.912Z,25.85
2017-06-08T02:00:25.049Z,25.85
2017-06-08T02:01:24.930Z,25.8
2017-06-08T02:02:25.548Z,25.85
2017-06-08T02:03:24.945Z,25.77
2017-06-08T02:04:24.952Z,25.8
2017-06-08T02:05:25.323Z,25.83
2017-06-08T02:06:25.282Z,25.85
2017-06-08T02:07:25.290Z,25.75
2017-06-08T02:08:25.298Z,25.77
2017-06-08T02:09:25.303Z,25.76
2017-06-08T02:10:25.003Z,25.77
2017-06-08T02:11:25.019Z,25.79
2017-06-08T02:12:25.019Z,25.73
2017-06-08T02:13:25.341Z,25.75
2017-06-08T02:14:25.396Z,25.83
2017-06-08T02:15:25.357Z,25.75
2017-06-08T02:16:25.365Z,25.77
2017-06-08T02:17:25.383Z,25.76
2017-06-08T02:18:24.758Z,25.8
2017-06-08T02:19:25.391Z,25.79
2017-06-08T02:20:25.405Z,25.76
2017-06-08T02:21:24.839Z,25.77
2017-06-08T02:22:25.110Z,25.83
2017-06-08T02:23:25.113Z,25.73
2017-06-08T02:24:25.432Z,25.76
2017-06-08T02:25:25.444Z,25.7
2017-06-08T02:26:25.454Z,25.77
2017-06-08T02:27:25.456Z,25.75
2017-06-08T02:28:25.468Z,25.73
2017-06-08T02:29:25.162Z,25.76
2017-06-08T02:30:25.173Z,25.73
2017-06-08T02:31:25.494Z,25.69
2017-06-08T02:32:25.551Z,25.73
2017-06-08T02:33:25.561Z,25.75
2017-06-08T02:34:25.206Z,25.75
2017-06-08T02:35:25.218Z,25.73
2017-06-08T02:36:25.536Z,25.79
2017-06-08T02:37:25.594Z,25.75
2017-06-08T02:38:24.928Z,25.77
2017-06-08T02:39:25.614Z,25.79
2017-06-08T02:40:25.254Z,25.72
2017-06-08T02:41:25.318Z,25.76
2017-06-08T02:42:25.583Z,25.79
2017-06-08T02:43:25.645Z,25.75
2017-06-08T02:44:25.293Z,25.76
2017-06-08T02:45:25.661Z,25.7
2017-06-08T02:46:25.616Z,25.72
2017-06-08T02:47:25.679Z,25.73
2017-06-08T02:48:25.633Z,25.72
2017-06-08T02:49:25.023Z,25.7
2017-06-08T02:50:25.654Z,25.7
2017-06-08T02:51:25.352Z,25.76
2017-06-08T02:52:25.358Z,25.69
2017-06-08T02:53:25.731Z,25.73
2017-06-08T02:54:25.375Z,25.77
2017-06-08T02:55:25.696Z,25.7
2017-06-08T02:56:25.764Z,25.73
2017-06-08T02:57:25.717Z,25.7
2017-06-08T02:58:25.722Z,25.72
2017-06-08T02:59:25.422Z,25.7
2017-06-08T03:00:25.738Z,25.69
2017-06-08T03:01:25.438Z,25.7
2017-06-08T03:02:25.547Z,25.72
2017-06-08T03:03:25.753Z,25.7
2017-06-08T03:04:25.773Z,25.67
2017-06-08T03:05:25.780Z,25.72
2017-06-08T03:06:25.798Z,25.67
2017-06-08T03:07:25.801Z,25.73
2017-06-08T03:08:25.498Z,25.73
2017-06-08T03:09:25.864Z,25.69
2017-06-08T03:10:25.834Z,25.73
2017-06-08T03:11:25.523Z,25.72
2017-06-08T03:12:25.530Z,25.73
2017-06-08T03:13:25.849Z,25.75
2017-06-08T03:14:25.908Z,25.75
2017-06-08T03:15:25.556Z,25.73
2017-06-08T03:16:25.563Z,25.72
2017-06-08T03:17:25.883Z,25.7
2017-06-08T03:18:25.894Z,25.75
2017-06-08T03:19:25.904Z,25.67
2017-06-08T03:20:25.915Z,25.69
2017-06-08T03:21:25.922Z,25.65
2017-06-08T03:22:25.930Z,25.73
2017-06-08T03:23:25.942Z,25.73
2017-06-08T03:24:25.633Z,25.7
2017-06-08T03:25:25.656Z,25.57
2017-06-08T03:26:25.966Z,25.73
2017-06-08T03:27:25.968Z,25.7
2017-06-08T03:28:25.976Z,25.67
2017-06-08T03:29:25.721Z,25.72
2017-06-08T03:30:26.001Z,25.7
2017-06-08T03:31:26.006Z,25.64
2017-06-08T03:32:26.015Z,25.65
2017-06-08T03:33:26.021Z,25.69
2017-06-08T03:34:25.412Z,25.69
2017-06-08T03:35:26.036Z,25.67
2017-06-08T03:36:26.047Z,25.62
2017-06-08T03:37:26.106Z,25.65
2017-06-08T03:38:25.753Z,25.69
2017-06-08T03:39:25.772Z,25.69
2017-06-08T03:40:26.083Z,25.62
2017-06-08T03:41:26.079Z,25.67
2017-06-08T03:42:26.105Z,25.57
2017-06-08T03:43:26.107Z,25.6
2017-06-08T03:44:26.121Z,25.6
2017-06-08T03:45:25.811Z,25.6
2017-06-08T03:46:26.139Z,25.62
2017-06-08T03:47:25.830Z,25.62
2017-06-08T03:48:25.840Z,25.58
2017-06-08T03:49:26.158Z,25.61
2017-06-08T03:50:25.859Z,25.61
2017-06-08T03:51:26.173Z,25.65
2017-06-08T03:52:26.181Z,25.61
2017-06-08T03:53:26.191Z,25.62
2017-06-08T03:54:26.202Z,25.64
2017-06-08T03:55:25.898Z,25.65
2017-06-08T03:56:25.907Z,25.61
2017-06-08T03:57:26.227Z,25.62
2017-06-08T03:58:25.923Z,25.64
2017-06-08T03:59:25.620Z,25.64
2017-06-08T04:00:26.249Z,25.58
2017-06-08T04:01:26.558Z,25.6
2017-06-08T04:02:26.270Z,25.62
2017-06-08T04:03:26.274Z,25.61
2017-06-08T04:04:26.026Z,25.6
2017-06-08T04:05:26.295Z,25.67
2017-06-08T04:06:26.348Z,25.6
2017-06-08T04:07:25.997Z,25.6
2017-06-08T04:08:26.007Z,25.62
2017-06-08T04:09:26.327Z,25.57
2017-06-08T04:10:26.026Z,25.6
2017-06-08T04:11:26.034Z,25.58
2017-06-08T04:12:26.353Z,25.57
2017-06-08T04:13:26.360Z,25.6
2017-06-08T04:14:26.418Z,25.57
2017-06-08T04:15:26.415Z,25.6
2017-06-08T04:16:26.420Z,25.6
2017-06-08T04:17:26.083Z,25.58
2017-06-08T04:18:26.092Z,25.7
2017-06-08T04:19:26.100Z,25.61
2017-06-08T04:20:26.423Z,25.6
2017-06-08T04:21:26.118Z,25.61
2017-06-08T04:22:26.537Z,25.57
2017-06-08T04:23:26.178Z,25.58
2017-06-08T04:24:26.454Z,25.61
2017-06-08T04:25:26.202Z,25.6
2017-06-08T04:26:26.475Z,25.58
2017-06-08T04:27:26.478Z,25.6
2017-06-08T04:28:26.174Z,25.54
2017-06-08T04:29:26.497Z,25.67
2017-06-08T04:30:26.242Z,25.6
2017-06-08T04:31:26.514Z,25.6
2017-06-08T04:32:26.521Z,25.58
2017-06-08T04:33:26.581Z,25.61
2017-06-08T04:34:26.535Z,25.57
2017-06-08T04:35:26.250Z,25.58
2017-06-08T04:36:26.554Z,25.6
2017-06-08T04:37:26.559Z,25.62
2017-06-08T04:38:26.569Z,25.58
2017-06-08T04:39:26.266Z,25.55
2017-06-08T04:40:26.276Z,25.64
2017-06-08T04:41:26.593Z,25.61
2017-06-08T04:42:26.594Z,25.6
2017-06-08T04:43:26.615Z,25.54
2017-06-08T04:44:26.620Z,25.62
2017-06-08T04:45:26.631Z,25.57
2017-06-08T04:46:26.635Z,25.57
2017-06-08T04:47:26.643Z,25.6
2017-06-08T04:48:26.343Z,25.58
2017-06-08T04:49:26.355Z,25.57
2017-06-08T04:50:26.718Z,25.52
2017-06-08T04:51:26.678Z,25.55
2017-06-08T04:52:26.685Z,25.61
2017-06-08T04:53:26.745Z,25.62
2017-06-08T04:54:26.717Z,25.6
2017-06-08T04:55:26.708Z,25.61
2017-06-08T04:56:26.408Z,25.64
2017-06-08T04:57:26.416Z,25.6
2017-06-08T04:58:26.736Z,25.62
2017-06-08T04:59:26.481Z,25.58
2017-06-08T05:00:26.754Z,25.64
2017-06-08T05:01:26.810Z,25.58
2017-06-08T05:02:26.818Z,25.62
2017-06-08T05:03:26.779Z,25.58
2017-06-08T05:04:26.524Z,25.55
2017-06-08T05:05:26.534Z,25.62
2017-06-08T05:06:26.526Z,25.7
2017-06-08T05:07:26.599Z,25.7
2017-06-08T05:08:26.866Z,25.61
2017-06-08T05:09:26.825Z,25.65
2017-06-08T05:10:26.833Z,25.64
2017-06-08T05:11:26.842Z,25.62
2017-06-08T05:12:26.591Z,25.6
2017-06-08T05:13:26.863Z,25.6
2017-06-08T05:14:26.917Z,25.6
2017-06-08T05:15:26.576Z,25.6
2017-06-08T05:16:26.675Z,25.6
2017-06-08T05:17:26.893Z,25.6
2017-06-08T05:18:26.593Z,25.58
2017-06-08T05:19:26.911Z,25.57
2017-06-08T05:20:26.921Z,25.62
2017-06-08T05:21:26.618Z,25.61
2017-06-08T05:22:26.938Z,25.57
2017-06-08T05:23:26.947Z,25.58
2017-06-08T05:24:26.952Z,25.55
2017-06-08T05:25:26.655Z,25.54
2017-06-08T05:26:27.021Z,25.65
2017-06-08T05:27:26.669Z,25.61
2017-06-08T05:28:27.035Z,25.57
2017-06-08T05:29:26.995Z,25.52
2017-06-08T05:30:27.001Z,25.57
2017-06-08T05:31:26.800Z,25.55
2017-06-08T05:32:27.070Z,25.57
2017-06-08T05:33:27.030Z,25.57
2017-06-08T05:34:27.034Z,25.58
2017-06-08T05:35:26.733Z,25.58
2017-06-08T05:36:26.745Z,25.61
2017-06-08T05:37:27.061Z,25.58
2017-06-08T05:38:27.068Z,25.64
2017-06-08T05:39:27.137Z,25.6
2017-06-08T05:40:26.779Z,25.61
2017-06-08T05:41:26.833Z,25.61
2017-06-08T05:42:26.794Z,25.57
2017-06-08T05:43:27.213Z,25.61
2017-06-08T05:44:26.806Z,25.72
2017-06-08T05:45:26.866Z,25.57
2017-06-08T05:46:27.137Z,25.62
2017-06-08T05:47:27.202Z,25.69
2017-06-08T05:48:26.841Z,25.55
2017-06-08T05:49:26.851Z,25.58
2017-06-08T05:50:26.907Z,25.54
2017-06-08T05:51:26.559Z,25.6
2017-06-08T05:52:26.923Z,25.6
2017-06-08T05:53:27.196Z,25.6
2017-06-08T05:54:27.202Z,25.61
2017-06-08T05:55:27.265Z,25.61
2017-06-08T05:56:26.595Z,25.6
2017-06-08T05:57:26.917Z,25.61
2017-06-08T05:58:27.232Z,25.65
2017-06-08T05:59:26.934Z,25.64
2017-06-08T06:00:27.251Z,25.64
2017-06-08T06:01:27.264Z,25.58
2017-06-08T06:02:27.273Z,25.57
2017-06-08T06:03:26.968Z,25.62
2017-06-08T06:04:27.342Z,25.58
2017-06-08T06:05:26.983Z,25.7
2017-06-08T06:06:27.304Z,25.62
2017-06-08T06:07:27.316Z,25.62
2017-06-08T06:08:27.016Z,25.69
2017-06-08T06:09:27.330Z,25.65
2017-06-08T06:10:27.339Z,25.58
2017-06-08T06:11:27.347Z,25.57
2017-06-08T06:12:27.095Z,25.69
2017-06-08T06:13:27.703Z,25.67
2017-06-08T06:14:27.061Z,25.62
2017-06-08T06:15:27.117Z,25.69
2017-06-08T06:16:27.386Z,25.69
2017-06-08T06:17:26.784Z,25.61
2017-06-08T06:18:27.093Z,25.67
2017-06-08T06:19:27.103Z,25.69
2017-06-08T06:20:27.112Z,25.72
2017-06-08T06:21:27.442Z,25.7
2017-06-08T06:22:26.818Z,25.7
2017-06-08T06:23:27.446Z,25.65
2017-06-08T06:24:27.453Z,25.77
2017-06-08T06:25:26.843Z,25.7
2017-06-08T06:26:27.473Z,25.73
2017-06-08T06:27:26.861Z,25.8
2017-06-08T06:28:27.528Z,25.73
2017-06-08T06:29:27.499Z,25.7
2017-06-08T06:30:27.506Z,25.73
2017-06-08T06:31:27.532Z,25.82
2017-06-08T06:32:27.263Z,25.8
2017-06-08T06:33:27.581Z,25.85
2017-06-08T06:34:27.540Z,25.77
2017-06-08T06:35:27.241Z,25.85
2017-06-08T06:36:27.661Z,25.85
2017-06-08T06:37:27.616Z,25.85
2017-06-08T06:38:27.314Z,25.98
2017-06-08T06:39:27.591Z,25.91
2017-06-08T06:40:26.968Z,26.02
2017-06-08T06:41:27.600Z,25.98
2017-06-08T06:42:27.608Z,25.99
2017-06-08T06:43:27.716Z,26.1
2017-06-08T06:44:27.631Z,26.06
2017-06-08T06:45:27.685Z,26.18
2017-06-08T06:46:27.334Z,26.13
2017-06-08T06:47:27.650Z,26.18
2017-06-08T06:48:27.357Z,26.12
2017-06-08T06:49:27.409Z,26.2
2017-06-08T06:50:27.418Z,26.21
2017-06-08T06:51:27.685Z,26.29
2017-06-08T06:52:27.697Z,26.28
2017-06-08T06:53:27.703Z,26.3
2017-06-08T06:54:27.711Z,26.26
2017-06-08T06:55:27.718Z,26.15
2017-06-08T06:56:27.730Z,26.13
2017-06-08T06:57:27.121Z,26.18
2017-06-08T06:58:27.744Z,26.12
2017-06-08T06:59:27.752Z,26.18
2017-06-08T07:00:27.453Z,26.52
2017-06-08T07:01:27.460Z,26.48
2017-06-08T07:02:27.829Z,26.55
2017-06-08T07:03:27.478Z,26.5
2017-06-08T07:04:27.795Z,26.5
2017-06-08T07:05:27.492Z,26.48
2017-06-08T07:06:27.503Z,26.48
2017-06-08T07:07:27.870Z,26.45
2017-06-08T07:08:27.522Z,26.45
2017-06-08T07:09:27.266Z,26.32
2017-06-08T07:10:27.850Z,26.35
2017-06-08T07:11:27.548Z,26.3
2017-06-08T07:12:27.553Z,26.32
2017-06-08T07:13:27.926Z,26.35
2017-06-08T07:14:27.573Z,26.32
2017-06-08T07:15:27.891Z,26.23
2017-06-08T07:16:27.953Z,26.25
2017-06-08T07:17:27.907Z,26.15
2017-06-08T07:18:28.215Z,26.25
2017-06-08T07:19:27.616Z,26.1
2017-06-08T07:20:27.981Z,26.02
2017-06-08T07:21:27.680Z,25.55
2017-06-08T07:22:27.640Z,25.1
2017-06-08T07:23:27.651Z,24.6
2017-06-08T07:24:27.963Z,24.45
2017-06-08T07:25:27.662Z,24.6
2017-06-08T07:26:27.981Z,24.25
2017-06-08T07:27:27.675Z,24.53
2017-06-08T07:28:27.677Z,24.71
2017-06-08T07:29:28.035Z,24.77
2017-06-08T07:30:28.008Z,24.12
2017-06-08T07:31:28.009Z,24.08
2017-06-08T07:32:28.011Z,24.08
2017-06-08T07:33:28.014Z,23.98
2017-06-08T07:34:27.401Z,24.16
2017-06-08T07:35:28.024Z,24.84
2017-06-08T07:36:28.113Z,25.43
2017-06-08T07:37:28.034Z,26.05
2017-06-08T07:38:28.040Z,26.32
2017-06-08T07:39:28.045Z,26.51
2017-06-08T07:40:27.742Z,26.54
2017-06-08T07:41:28.060Z,26.69
2017-06-08T07:42:28.069Z,26.75
2017-06-08T07:43:28.118Z,26.84
2017-06-08T07:44:28.081Z,26.88
2017-06-08T07:45:27.468Z,27
2017-06-08T07:46:27.792Z,27
2017-06-08T07:47:28.151Z,27.04
2017-06-08T07:48:28.158Z,27.06
2017-06-08T07:49:28.419Z,27.13
2017-06-08T07:50:28.126Z,27.12
2017-06-08T07:51:28.134Z,27.14
2017-06-08T07:52:28.140Z,27.28
2017-06-08T07:53:28.147Z,27.19
2017-06-08T07:54:28.157Z,27.24
2017-06-08T07:55:28.166Z,27.32
2017-06-08T07:56:28.172Z,27.22
2017-06-08T07:57:28.178Z,27.21
2017-06-08T07:58:27.878Z,27.24
2017-06-08T07:59:27.885Z,27.25
2017-06-08T08:00:28.208Z,27.4
2017-06-08T08:01:28.212Z,27.44
2017-06-08T08:02:27.915Z,27.66
2017-06-08T08:03:27.916Z,27.62
2017-06-08T08:04:27.667Z,27.69
2017-06-08T08:05:28.250Z,27.72
2017-06-08T08:06:28.305Z,27.78
2017-06-08T08:07:28.266Z,27.82
2017-06-08T08:08:28.011Z,27.75
2017-06-08T08:09:28.283Z,27.7
2017-06-08T08:10:28.295Z,27.7
2017-06-08T08:11:28.298Z,27.67
2017-06-08T08:12:28.311Z,27.62
2017-06-08T08:13:28.327Z,27.62
2017-06-08T08:14:28.384Z,27.69
2017-06-08T08:15:28.333Z,27.63
2017-06-08T08:16:28.347Z,27.66
2017-06-08T08:17:28.095Z,27.66
2017-06-08T08:18:28.050Z,27.63
2017-06-08T08:19:28.370Z,27.59
2017-06-08T08:20:28.391Z,27.51
2017-06-08T08:21:28.110Z,27.54
2017-06-08T08:22:28.396Z,27.62
2017-06-08T08:23:28.410Z,27.55
2017-06-08T08:24:28.419Z,27.43
2017-06-08T08:25:28.433Z,27.49
2017-06-08T08:26:28.486Z,27.46
2017-06-08T08:27:28.480Z,27.44
2017-06-08T08:28:28.494Z,27.37
2017-06-08T08:29:28.463Z,27.44
2017-06-08T08:30:28.167Z,27.41
2017-06-08T08:31:28.169Z,27.22
2017-06-08T08:32:28.177Z,27.24
2017-06-08T08:33:28.286Z,27.25
2017-06-08T08:34:28.509Z,27.29
2017-06-08T08:35:28.618Z,27.24
2017-06-08T08:36:28.528Z,27.39
2017-06-08T08:37:28.225Z,27.39
2017-06-08T08:38:28.592Z,27.39
2017-06-08T08:39:28.552Z,27.37
2017-06-08T08:40:28.343Z,27.32
2017-06-08T08:41:28.310Z,27.29
2017-06-08T08:42:28.596Z,27.28
2017-06-08T08:43:28.596Z,27.24
2017-06-08T08:44:28.293Z,27.43
2017-06-08T08:45:28.308Z,27.4
2017-06-08T08:46:28.054Z,27.4
2017-06-08T08:47:28.367Z,27.41
2017-06-08T08:48:28.324Z,27.43
2017-06-08T08:49:28.335Z,27.28
2017-06-08T08:50:28.035Z,27.41
2017-06-08T08:51:28.453Z,27.4
2017-06-08T08:52:28.364Z,27.44
2017-06-08T08:53:28.377Z,27.47
2017-06-08T08:54:28.427Z,27.47
2017-06-08T08:55:28.698Z,27.63
2017-06-08T08:56:28.398Z,27.55
2017-06-08T08:57:28.459Z,27.55
2017-06-08T08:58:28.730Z,27.59
2017-06-08T08:59:28.737Z,27.6
2017-06-08T09:00:28.440Z,27.54
2017-06-08T09:01:28.530Z,27.51
2017-06-08T09:02:28.456Z,27.54
2017-06-08T09:03:29.001Z,27.55
2017-06-08T09:04:28.617Z,27.49
2017-06-08T09:05:28.529Z,27.43
2017-06-08T09:06:28.644Z,27.36
2017-06-08T09:07:29.031Z,27.5
2017-06-08T09:08:28.688Z,27.54
2017-06-08T09:09:29.111Z,27.57
2017-06-08T09:10:29.079Z,27.59
2017-06-08T09:11:28.846Z,27.59
2017-06-08T09:12:28.860Z,27.54
2017-06-08T09:13:28.868Z,27.39
2017-06-08T09:14:28.876Z,27.41
2017-06-08T09:15:28.934Z,27.49
2017-06-08T09:16:28.891Z,27.5
2017-06-08T09:17:28.690Z,27.62
2017-06-08T09:18:28.613Z,27.51
2017-06-08T09:19:28.619Z,27.44
2017-06-08T09:20:28.618Z,27.47
2017-06-08T09:21:28.934Z,27.39
2017-06-08T09:22:28.637Z,27.4
2017-06-08T09:23:28.333Z,27.27
2017-06-08T09:24:28.651Z,27.43
2017-06-08T09:25:29.052Z,27.49
2017-06-08T09:26:28.671Z,27.55
2017-06-08T09:27:29.037Z,27.57
2017-06-08T09:28:28.380Z,27.43
2017-06-08T09:29:28.694Z,27.44
2017-06-08T09:30:28.703Z,27.43
2017-06-08T09:31:28.400Z,27.43
2017-06-08T09:32:28.722Z,27.62
2017-06-08T09:33:28.731Z,27.44
2017-06-08T09:34:28.740Z,27.41
2017-06-08T09:35:28.746Z,27.4
2017-06-08T09:36:28.448Z,27.47
2017-06-08T09:37:28.503Z,27.54
2017-06-08T09:38:28.772Z,27.59
2017-06-08T09:39:28.831Z,27.62
2017-06-08T09:40:29.405Z,27.5
2017-06-08T09:41:28.542Z,27.51
2017-06-08T09:42:28.494Z,27.47
2017-06-08T09:43:28.817Z,27.46
2017-06-08T09:44:28.824Z,27.43
2017-06-08T09:45:28.837Z,27.5
2017-06-08T09:46:28.898Z,27.5
2017-06-08T09:47:28.598Z,27.59
2017-06-08T09:48:28.549Z,27.63
2017-06-08T09:49:28.874Z,27.59
2017-06-08T09:50:28.933Z,27.6
2017-06-08T09:51:28.892Z,27.57
2017-06-08T09:52:28.950Z,27.66
2017-06-08T09:53:28.911Z,27.65
2017-06-08T09:54:29.280Z,27.69
2017-06-08T09:55:28.995Z,27.57
2017-06-08T09:56:29.250Z,27.51
2017-06-08T09:57:29.258Z,27.55
2017-06-08T09:58:28.957Z,27.57
2017-06-08T09:59:29.278Z,27.54
2017-06-08T10:00:29.289Z,27.5
2017-06-08T10:01:29.343Z,27.5
2017-06-08T10:02:29.437Z,27.6
2017-06-08T10:03:29.375Z,27.51
2017-06-08T10:04:29.017Z,27.55
2017-06-08T10:05:28.764Z,27.49
2017-06-08T10:06:29.340Z,27.55
2017-06-08T10:07:29.039Z,27.54
2017-06-08T10:08:29.045Z,27.51
2017-06-08T10:09:29.383Z,27.43
2017-06-08T10:10:29.438Z,27.4
2017-06-08T10:11:29.284Z,27.39
2017-06-08T10:12:29.391Z,27.36
2017-06-08T10:13:28.779Z,27.39
2017-06-08T10:14:29.409Z,27.41
2017-06-08T10:15:29.418Z,27.37
2017-06-08T10:16:28.857Z,27.47
2017-06-08T10:17:29.443Z,27.46
2017-06-08T10:18:29.501Z,27.49
2017-06-08T10:19:29.146Z,27.57
2017-06-08T10:20:29.463Z,27.62
2017-06-08T10:21:29.161Z,27.51
2017-06-08T10:22:29.171Z,27.51
2017-06-08T10:23:29.196Z,27.54
2017-06-08T10:24:29.503Z,27.55
2017-06-08T10:25:29.510Z,27.54
2017-06-08T10:26:29.247Z,27.51
2017-06-08T10:27:29.523Z,27.51
2017-06-08T10:28:29.535Z,27.55
2017-06-08T10:29:29.595Z,27.54
2017-06-08T10:30:29.247Z,27.51
2017-06-08T10:31:29.567Z,27.44
2017-06-08T10:32:29.265Z,27.4
2017-06-08T10:33:29.325Z,27.44
2017-06-08T10:34:29.596Z,27.46
2017-06-08T10:35:29.296Z,27.47
2017-06-08T10:36:29.300Z,27.54
2017-06-08T10:37:29.619Z,27.44
2017-06-08T10:38:29.628Z,27.5
2017-06-08T10:39:29.327Z,27.54
2017-06-08T10:40:29.694Z,27.55
2017-06-08T10:41:29.349Z,27.54
2017-06-08T10:42:29.453Z,27.49
2017-06-08T10:43:29.362Z,27.5
2017-06-08T10:44:29.681Z,27.34
2017-06-08T10:45:29.715Z,27.41
2017-06-08T10:46:29.702Z,27.44
2017-06-08T10:47:29.668Z,27.41
2017-06-08T10:48:29.460Z,27.49
2017-06-08T10:49:29.731Z,27.49
2017-06-08T10:50:29.429Z,27.49
2017-06-08T10:51:29.749Z,27.51
2017-06-08T10:52:29.445Z,27.63
2017-06-08T10:53:29.765Z,27.6
2017-06-08T10:54:29.776Z,27.51
2017-06-08T10:55:29.783Z,27.69
2017-06-08T10:56:29.795Z,27.63
2017-06-08T10:57:29.802Z,27.7
2017-06-08T10:58:29.193Z,27.66
2017-06-08T10:59:29.559Z,27.55
2017-06-08T11:00:29.570Z,27.55
2017-06-08T11:01:29.581Z,27.55
2017-06-08T11:02:29.540Z,27.62
2017-06-08T11:03:29.857Z,27.55
2017-06-08T11:04:29.918Z,27.49
2017-06-08T11:05:29.875Z,27.55
2017-06-08T11:06:29.575Z,27.5
2017-06-08T11:07:29.950Z,27.47
2017-06-08T11:08:29.901Z,27.49
2017-06-08T11:09:29.962Z,27.59
2017-06-08T11:10:29.971Z,27.55
2017-06-08T11:11:29.978Z,27.6
2017-06-08T11:12:29.942Z,27.62
2017-06-08T11:13:29.948Z,27.69
2017-06-08T11:14:29.647Z,27.66
2017-06-08T11:15:30.019Z,27.67
2017-06-08T11:16:29.720Z,27.72
2017-06-08T11:17:29.726Z,27.63
2017-06-08T11:18:29.686Z,27.66
2017-06-08T11:19:29.744Z,27.62
2017-06-08T11:20:29.754Z,27.62
2017-06-08T11:21:30.023Z,27.54
2017-06-08T11:22:30.141Z,27.4
2017-06-08T11:23:30.045Z,27.5
2017-06-08T11:24:29.789Z,27.46
2017-06-08T11:25:30.076Z,27.47
2017-06-08T11:26:30.086Z,27.49
2017-06-08T11:27:29.768Z,27.4
2017-06-08T11:28:30.086Z,27.54
2017-06-08T11:29:30.099Z,27.46
2017-06-08T11:30:29.624Z,27.44
2017-06-08T11:31:29.808Z,27.51
2017-06-08T11:32:30.129Z,27.51
2017-06-08T11:33:30.182Z,27.62
2017-06-08T11:34:29.833Z,27.66
2017-06-08T11:35:29.844Z,27.62
2017-06-08T11:36:29.854Z,27.51
2017-06-08T11:37:30.176Z,27.54
2017-06-08T11:38:30.185Z,27.5
2017-06-08T11:39:30.192Z,27.59
2017-06-08T11:40:30.203Z,27.5
2017-06-08T11:41:30.215Z,27.59
2017-06-08T11:42:30.271Z,27.57
2017-06-08T11:43:30.226Z,27.43
2017-06-08T11:44:30.241Z,27.46
2017-06-08T11:45:29.938Z,27.41
2017-06-08T11:46:29.641Z,27.41
2017-06-08T11:47:29.956Z,27.41
2017-06-08T11:48:30.279Z,27.41
2017-06-08T11:49:30.289Z,27.49
2017-06-08T11:50:30.298Z,27.57
2017-06-08T11:51:30.305Z,27.41
2017-06-08T11:52:30.312Z,27.43
2017-06-08T11:53:30.323Z,27.39
2017-06-08T11:54:29.760Z,27.29
2017-06-08T11:55:30.339Z,27.4
2017-06-08T11:56:30.402Z,27.41
2017-06-08T11:57:30.045Z,27.37
2017-06-08T11:58:29.797Z,27.43
2017-06-08T11:59:30.067Z,27.36
2017-06-08T12:00:30.078Z,27.4
2017-06-08T12:01:30.084Z,27.46
2017-06-08T12:02:30.409Z,27.5
2017-06-08T12:03:30.465Z,27.47
2017-06-08T12:04:30.113Z,27.44
2017-06-08T12:05:30.121Z,27.4
2017-06-08T12:06:29.820Z,27.43
2017-06-08T12:07:30.452Z,27.44
2017-06-08T12:08:30.149Z,27.5
2017-06-08T12:09:30.478Z,27.46
2017-06-08T12:10:30.166Z,27.39
2017-06-08T12:11:30.177Z,27.34
2017-06-08T12:12:30.188Z,27.41
2017-06-08T12:13:30.511Z,27.4
2017-06-08T12:14:30.519Z,27.4
2017-06-08T12:15:30.266Z,27.47
2017-06-08T12:16:30.536Z,27.39
2017-06-08T12:17:30.231Z,27.46
2017-06-08T12:18:30.240Z,27.46
2017-06-08T12:19:30.562Z,27.4
2017-06-08T12:20:30.573Z,27.44
2017-06-08T12:21:30.586Z,27.4
2017-06-08T12:22:30.280Z,27.41
2017-06-08T12:23:29.984Z,27.4
2017-06-08T12:24:30.299Z,27.37
2017-06-08T12:25:30.309Z,27.44
2017-06-08T12:26:30.313Z,27.36
2017-06-08T12:27:30.325Z,27.44
2017-06-08T12:28:30.454Z,27.4
2017-06-08T12:29:30.346Z,27.4
2017-06-08T12:30:30.709Z,27.39
2017-06-08T12:31:30.675Z,27.41
2017-06-08T12:32:30.371Z,27.37
2017-06-08T12:33:30.692Z,27.37
2017-06-08T12:34:30.699Z,27.47
2017-06-08T12:35:30.452Z,27.46
2017-06-08T12:36:30.458Z,27.31
2017-06-08T12:37:30.412Z,27.36
2017-06-08T12:38:30.524Z,27.29
2017-06-08T12:39:30.489Z,27.31
2017-06-08T12:40:30.757Z,27.27
2017-06-08T12:41:30.811Z,27.37
2017-06-08T12:42:30.772Z,27.27
2017-06-08T12:43:30.783Z,27.24
2017-06-08T12:44:30.795Z,27.27
2017-06-08T12:45:30.488Z,27.29
2017-06-08T12:46:30.192Z,27.31
2017-06-08T12:47:30.198Z,27.37
2017-06-08T12:48:30.827Z,27.31
2017-06-08T12:49:30.218Z,27.32
2017-06-08T12:50:30.898Z,27.32
2017-06-08T12:51:30.858Z,27.41
2017-06-08T12:52:30.603Z,27.43
2017-06-08T12:53:30.617Z,27.29
2017-06-08T12:54:30.891Z,27.27
2017-06-08T12:55:30.684Z,27.28
2017-06-08T12:56:30.899Z,27.4
2017-06-08T12:57:30.649Z,27.4